sensor_id;sensor_type;location;lat;lon;timestamp;pressure;altitude;pressure_sealevel;temperature;humidity
37610;BME280;23457;51.966;8.230;2023-03-16T00:02:02;101364.47;;;2.10;86.28
37610;BME280;23457;51.966;8.230;2023-03-16T00:04:29;101368.13;;;2.14;85.65
37610;BME280;23457;51.966;8.230;2023-03-16T00:06:56;101358.88;;;2.03;86.14
37610;BME280;23457;51.966;8.230;2023-03-16T00:09:23;101353.84;;;2.04;85.65
37610;BME280;23457;51.966;8.230;2023-03-16T00:12:00;101354.91;;;2.08;85.74
37610;BME280;23457;51.966;8.230;2023-03-16T00:14:31;101364.41;;;2.24;85.24
37610;BME280;23457;51.966;8.230;2023-03-16T00:16:58;101363.81;;;2.28;85.04
37610;BME280;23457;51.966;8.230;2023-03-16T00:19:24;101361.38;;;2.16;85.09
37610;BME280;23457;51.966;8.230;2023-03-16T00:21:51;101367.50;;;2.18;85.04
37610;BME280;23457;51.966;8.230;2023-03-16T00:24:18;101363.78;;;2.13;85.64
37610;BME280;23457;51.966;8.230;2023-03-16T00:26:46;101362.59;;;2.08;85.52
37610;BME280;23457;51.966;8.230;2023-03-16T00:29:13;101365.38;;;2.11;85.91
37610;BME280;23457;51.966;8.230;2023-03-16T00:31:41;101361.13;;;2.11;86.43
37610;BME280;23457;51.966;8.230;2023-03-16T00:34:11;101363.59;;;2.10;86.79
37610;BME280;23457;51.966;8.230;2023-03-16T00:36:38;101371.88;;;2.06;86.46
37610;BME280;23457;51.966;8.230;2023-03-16T00:39:05;101364.28;;;2.07;87.12
37610;BME280;23457;51.966;8.230;2023-03-16T00:41:32;101357.47;;;2.08;87.08
37610;BME280;23457;51.966;8.230;2023-03-16T00:44:04;101357.38;;;2.06;87.00
37610;BME280;23457;51.966;8.230;2023-03-16T00:46:31;101358.66;;;2.13;86.87
37610;BME280;23457;51.966;8.230;2023-03-16T00:48:58;101355.09;;;2.11;86.68
37610;BME280;23457;51.966;8.230;2023-03-16T00:51:24;101351.75;;;2.12;85.95
37610;BME280;23457;51.966;8.230;2023-03-16T00:53:51;101353.44;;;2.11;86.03
37610;BME280;23457;51.966;8.230;2023-03-16T00:56:18;101359.00;;;2.19;86.12
37610;BME280;23457;51.966;8.230;2023-03-16T00:58:44;101340.78;;;2.14;85.72
37610;BME280;23457;51.966;8.230;2023-03-16T01:01:16;101338.47;;;2.19;85.77
37610;BME280;23457;51.966;8.230;2023-03-16T01:03:44;101333.75;;;1.97;86.24
37610;BME280;23457;51.966;8.230;2023-03-16T01:06:14;101328.03;;;2.01;87.07
37610;BME280;23457;51.966;8.230;2023-03-16T01:08:43;101323.13;;;1.76;86.95
37610;BME280;23457;51.966;8.230;2023-03-16T01:11:13;101315.97;;;1.86;87.35
37610;BME280;23457;51.966;8.230;2023-03-16T01:13:43;101314.50;;;1.89;87.60
37610;BME280;23457;51.966;8.230;2023-03-16T01:16:12;101329.44;;;1.96;86.89
37610;BME280;23457;51.966;8.230;2023-03-16T01:18:39;101334.22;;;2.05;86.06
37610;BME280;23457;51.966;8.230;2023-03-16T01:21:08;101329.97;;;2.05;86.94
37610;BME280;23457;51.966;8.230;2023-03-16T01:23:36;101329.88;;;2.04;86.39
37610;BME280;23457;51.966;8.230;2023-03-16T01:26:03;101330.03;;;1.92;87.25
37610;BME280;23457;51.966;8.230;2023-03-16T01:28:31;101331.00;;;1.94;87.12
37610;BME280;23457;51.966;8.230;2023-03-16T01:31:04;101336.13;;;1.94;87.17
37610;BME280;23457;51.966;8.230;2023-03-16T01:33:33;101346.53;;;1.83;87.86
37610;BME280;23457;51.966;8.230;2023-03-16T01:36:10;101329.16;;;1.92;87.59
37610;BME280;23457;51.966;8.230;2023-03-16T01:38:51;101326.31;;;1.87;88.22
37610;BME280;23457;51.966;8.230;2023-03-16T01:41:18;101314.81;;;1.80;88.22
37610;BME280;23457;51.966;8.230;2023-03-16T01:43:45;101307.56;;;1.73;88.82
37610;BME280;23457;51.966;8.230;2023-03-16T01:46:20;101305.25;;;1.78;88.78
37610;BME280;23457;51.966;8.230;2023-03-16T01:54:42;101301.69;;;1.61;89.62
37610;BME280;23457;51.966;8.230;2023-03-16T01:59:41;101272.81;;;1.78;89.37
37610;BME280;23457;51.966;8.230;2023-03-16T02:02:10;101269.38;;;1.78;88.83
37610;BME280;23457;51.966;8.230;2023-03-16T02:05:03;101260.34;;;1.70;89.20
37610;BME280;23457;51.966;8.230;2023-03-16T02:07:42;101256.00;;;1.69;89.13
37610;BME280;23457;51.966;8.230;2023-03-16T02:10:12;101255.81;;;1.66;88.96
37610;BME280;23457;51.966;8.230;2023-03-16T02:12:40;101255.13;;;1.68;88.74
37610;BME280;23457;51.966;8.230;2023-03-16T02:15:07;101244.88;;;1.68;88.71
37610;BME280;23457;51.966;8.230;2023-03-16T02:17:34;101246.91;;;1.59;89.54
37610;BME280;23457;51.966;8.230;2023-03-16T02:22:50;101253.16;;;1.50;89.91
37610;BME280;23457;51.966;8.230;2023-03-16T02:25:30;101252.22;;;1.62;88.92
37610;BME280;23457;51.966;8.230;2023-03-16T02:28:18;101252.53;;;1.54;88.65
37610;BME280;23457;51.966;8.230;2023-03-16T02:30:48;101257.34;;;1.62;88.62
37610;BME280;23457;51.966;8.230;2023-03-16T02:33:16;101247.09;;;1.62;88.86
37610;BME280;23457;51.966;8.230;2023-03-16T02:35:43;101240.59;;;1.54;89.04
37610;BME280;23457;51.966;8.230;2023-03-16T02:38:10;101243.94;;;1.53;89.03
37610;BME280;23457;51.966;8.230;2023-03-16T02:40:45;101243.75;;;1.63;88.70
37610;BME280;23457;51.966;8.230;2023-03-16T02:43:22;101249.25;;;1.56;89.22
37610;BME280;23457;51.966;8.230;2023-03-16T02:46:02;101246.50;;;1.53;88.86
37610;BME280;23457;51.966;8.230;2023-03-16T02:49:01;101243.25;;;1.56;88.86
37610;BME280;23457;51.966;8.230;2023-03-16T02:51:29;101240.25;;;1.48;89.15
37610;BME280;23457;51.966;8.230;2023-03-16T02:53:58;101239.22;;;1.59;88.79
37610;BME280;23457;51.966;8.230;2023-03-16T02:56:26;101237.53;;;1.60;88.66
37610;BME280;23457;51.966;8.230;2023-03-16T02:58:54;101240.38;;;1.64;88.22
37610;BME280;23457;51.966;8.230;2023-03-16T03:01:23;101244.75;;;1.52;88.48
37610;BME280;23457;51.966;8.230;2023-03-16T03:03:50;101233.72;;;1.53;88.54
37610;BME280;23457;51.966;8.230;2023-03-16T03:06:16;101241.38;;;1.38;88.84
37610;BME280;23457;51.966;8.230;2023-03-16T03:08:44;101237.41;;;1.43;88.65
37610;BME280;23457;51.966;8.230;2023-03-16T03:11:11;101233.16;;;1.44;88.66
37610;BME280;23457;51.966;8.230;2023-03-16T03:13:37;101236.91;;;1.49;88.38
37610;BME280;23457;51.966;8.230;2023-03-16T03:16:09;101229.22;;;1.49;88.24
37610;BME280;23457;51.966;8.230;2023-03-16T03:18:36;101234.31;;;1.21;88.01
37610;BME280;23457;51.966;8.230;2023-03-16T03:21:03;101234.81;;;1.16;88.98
37610;BME280;23457;51.966;8.230;2023-03-16T03:23:32;101223.56;;;1.27;88.79
37610;BME280;23457;51.966;8.230;2023-03-16T03:26:01;101230.44;;;1.28;88.92
37610;BME280;23457;51.966;8.230;2023-03-16T03:28:30;101225.13;;;1.38;89.15
37610;BME280;23457;51.966;8.230;2023-03-16T03:30:59;101225.03;;;1.36;89.01
37610;BME280;23457;51.966;8.230;2023-03-16T03:33:28;101234.56;;;1.39;88.84
37610;BME280;23457;51.966;8.230;2023-03-16T03:35:57;101234.75;;;1.42;88.86
37610;BME280;23457;51.966;8.230;2023-03-16T03:38:28;101237.50;;;1.45;88.79
37610;BME280;23457;51.966;8.230;2023-03-16T03:40:54;101235.75;;;1.31;89.66
37610;BME280;23457;51.966;8.230;2023-03-16T03:43:28;101230.16;;;1.36;89.79
37610;BME280;23457;51.966;8.230;2023-03-16T03:45:58;101235.53;;;1.41;89.04
37610;BME280;23457;51.966;8.230;2023-03-16T03:48:25;101228.56;;;1.38;88.78
37610;BME280;23457;51.966;8.230;2023-03-16T03:50:54;101220.00;;;1.38;89.23
37610;BME280;23457;51.966;8.230;2023-03-16T03:53:24;101225.91;;;1.37;89.09
37610;BME280;23457;51.966;8.230;2023-03-16T03:56:23;101224.72;;;1.32;88.91
37610;BME280;23457;51.966;8.230;2023-03-16T03:58:50;101222.59;;;1.25;89.19
37610;BME280;23457;51.966;8.230;2023-03-16T04:01:28;101219.03;;;1.36;89.37
37610;BME280;23457;51.966;8.230;2023-03-16T04:03:55;101219.31;;;1.27;88.85
37610;BME280;23457;51.966;8.230;2023-03-16T04:06:22;101215.66;;;1.37;89.15
37610;BME280;23457;51.966;8.230;2023-03-16T04:08:48;101218.31;;;1.38;88.50
37610;BME280;23457;51.966;8.230;2023-03-16T04:11:20;101205.69;;;1.41;88.38
37610;BME280;23457;51.966;8.230;2023-03-16T04:13:50;101211.28;;;1.49;87.58
37610;BME280;23457;51.966;8.230;2023-03-16T04:16:18;101205.13;;;1.32;88.79
37610;BME280;23457;51.966;8.230;2023-03-16T04:18:46;101211.97;;;1.47;88.40
37610;BME280;23457;51.966;8.230;2023-03-16T04:21:15;101208.81;;;1.51;87.44
37610;BME280;23457;51.966;8.230;2023-03-16T04:23:45;101211.94;;;1.32;87.69
37610;BME280;23457;51.966;8.230;2023-03-16T04:26:12;101206.22;;;1.36;87.59
37610;BME280;23457;51.966;8.230;2023-03-16T04:28:42;101209.66;;;1.36;86.94
37610;BME280;23457;51.966;8.230;2023-03-16T04:31:12;101205.59;;;1.40;86.96
37610;BME280;23457;51.966;8.230;2023-03-16T04:33:42;101207.53;;;1.44;86.85
37610;BME280;23457;51.966;8.230;2023-03-16T04:36:09;101196.25;;;1.55;87.32
37610;BME280;23457;51.966;8.230;2023-03-16T04:38:37;101197.69;;;1.65;86.91
37610;BME280;23457;51.966;8.230;2023-03-16T04:41:05;101201.31;;;1.68;86.52
37610;BME280;23457;51.966;8.230;2023-03-16T04:43:36;101199.03;;;1.73;85.59
37610;BME280;23457;51.966;8.230;2023-03-16T04:46:16;101186.03;;;1.70;85.05
37610;BME280;23457;51.966;8.230;2023-03-16T04:48:43;101184.88;;;1.65;85.54
37610;BME280;23457;51.966;8.230;2023-03-16T04:51:10;101184.81;;;1.63;85.93
37610;BME280;23457;51.966;8.230;2023-03-16T04:53:42;101188.88;;;1.74;85.97
37610;BME280;23457;51.966;8.230;2023-03-16T04:56:19;101191.00;;;1.82;86.08
37610;BME280;23457;51.966;8.230;2023-03-16T04:58:52;101188.16;;;1.92;84.07
37610;BME280;23457;51.966;8.230;2023-03-16T05:01:21;101183.41;;;1.98;83.75
37610;BME280;23457;51.966;8.230;2023-03-16T05:03:52;101185.78;;;1.95;83.83
37610;BME280;23457;51.966;8.230;2023-03-16T05:06:19;101178.38;;;1.99;83.32
37610;BME280;23457;51.966;8.230;2023-03-16T05:08:46;101178.47;;;2.01;83.69
37610;BME280;23457;51.966;8.230;2023-03-16T05:11:13;101175.91;;;2.01;83.80
37610;BME280;23457;51.966;8.230;2023-03-16T05:13:49;101174.72;;;1.96;84.12
37610;BME280;23457;51.966;8.230;2023-03-16T05:16:16;101171.91;;;2.06;83.54
37610;BME280;23457;51.966;8.230;2023-03-16T05:18:43;101169.09;;;2.01;83.42
37610;BME280;23457;51.966;8.230;2023-03-16T05:21:10;101164.75;;;2.15;84.08
37610;BME280;23457;51.966;8.230;2023-03-16T05:23:49;101166.47;;;2.16;83.97
37610;BME280;23457;51.966;8.230;2023-03-16T05:26:17;101154.72;;;2.20;83.65
37610;BME280;23457;51.966;8.230;2023-03-16T05:28:45;101163.41;;;2.22;83.54
37610;BME280;23457;51.966;8.230;2023-03-16T05:31:14;101159.75;;;2.18;84.09
37610;BME280;23457;51.966;8.230;2023-03-16T05:33:46;101162.19;;;2.15;84.44
37610;BME280;23457;51.966;8.230;2023-03-16T05:36:17;101164.91;;;2.18;84.15
37610;BME280;23457;51.966;8.230;2023-03-16T05:38:46;101159.69;;;2.16;83.64
37610;BME280;23457;51.966;8.230;2023-03-16T05:41:22;101157.19;;;2.33;83.30
37610;BME280;23457;51.966;8.230;2023-03-16T05:44:10;101158.78;;;2.31;83.42
37610;BME280;23457;51.966;8.230;2023-03-16T05:46:51;101156.75;;;2.40;83.51
37610;BME280;23457;51.966;8.230;2023-03-16T05:49:18;101146.63;;;2.43;83.57
37610;BME280;23457;51.966;8.230;2023-03-16T05:51:45;101146.28;;;2.51;82.74
37610;BME280;23457;51.966;8.230;2023-03-16T05:54:12;101145.75;;;2.42;83.21
37610;BME280;23457;51.966;8.230;2023-03-16T05:56:44;101152.56;;;2.42;82.30
37610;BME280;23457;51.966;8.230;2023-03-16T05:59:11;101145.47;;;2.53;82.00
37610;BME280;23457;51.966;8.230;2023-03-16T06:01:38;101142.16;;;2.55;81.77
37610;BME280;23457;51.966;8.230;2023-03-16T06:04:06;101143.50;;;2.63;82.45
37610;BME280;23457;51.966;8.230;2023-03-16T06:06:35;101140.00;;;2.77;81.79
37610;BME280;23457;51.966;8.230;2023-03-16T06:09:13;101138.44;;;2.81;81.95
37610;BME280;23457;51.966;8.230;2023-03-16T06:11:40;101136.53;;;2.77;81.58
37610;BME280;23457;51.966;8.230;2023-03-16T06:14:07;101133.81;;;2.90;81.08
37610;BME280;23457;51.966;8.230;2023-03-16T06:16:35;101132.84;;;2.88;81.54
37610;BME280;23457;51.966;8.230;2023-03-16T06:19:02;101123.22;;;2.84;82.03
37610;BME280;23457;51.966;8.230;2023-03-16T06:21:31;101124.75;;;2.97;81.57
37610;BME280;23457;51.966;8.230;2023-03-16T06:24:05;101132.69;;;3.01;80.93
37610;BME280;23457;51.966;8.230;2023-03-16T06:26:35;101130.47;;;2.91;81.76
37610;BME280;23457;51.966;8.230;2023-03-16T06:29:04;101139.25;;;2.96;82.61
37610;BME280;23457;51.966;8.230;2023-03-16T06:31:33;101130.53;;;3.09;80.82
37610;BME280;23457;51.966;8.230;2023-03-16T06:34:01;101132.03;;;3.21;80.22
37610;BME280;23457;51.966;8.230;2023-03-16T06:36:29;101133.44;;;3.15;80.77
37610;BME280;23457;51.966;8.230;2023-03-16T06:38:59;101132.38;;;3.28;81.11
37610;BME280;23457;51.966;8.230;2023-03-16T06:41:31;101123.63;;;3.40;81.00
37610;BME280;23457;51.966;8.230;2023-03-16T06:43:58;101120.06;;;3.38;80.96
37610;BME280;23457;51.966;8.230;2023-03-16T06:46:25;101122.81;;;3.41;81.27
37610;BME280;23457;51.966;8.230;2023-03-16T06:48:52;101120.69;;;3.50;79.87
37610;BME280;23457;51.966;8.230;2023-03-16T06:51:19;101129.03;;;3.46;79.79
37610;BME280;23457;51.966;8.230;2023-03-16T06:53:46;101132.91;;;3.54;79.39
37610;BME280;23457;51.966;8.230;2023-03-16T06:56:13;101136.31;;;3.71;78.36
37610;BME280;23457;51.966;8.230;2023-03-16T06:58:43;101134.06;;;3.77;77.53
37610;BME280;23457;51.966;8.230;2023-03-16T07:01:09;101132.03;;;3.54;79.71
37610;BME280;23457;51.966;8.230;2023-03-16T07:03:37;101129.47;;;3.72;78.71
37610;BME280;23457;51.966;8.230;2023-03-16T07:06:13;101120.47;;;3.80;78.57
37610;BME280;23457;51.966;8.230;2023-03-16T07:08:41;101132.53;;;3.99;77.77
37610;BME280;23457;51.966;8.230;2023-03-16T07:11:09;101136.81;;;4.16;77.22
37610;BME280;23457;51.966;8.230;2023-03-16T07:13:36;101132.09;;;4.25;75.93
37610;BME280;23457;51.966;8.230;2023-03-16T07:16:04;101134.25;;;4.16;76.26
37610;BME280;23457;51.966;8.230;2023-03-16T07:18:31;101135.78;;;4.30;77.09
37610;BME280;23457;51.966;8.230;2023-03-16T07:20:58;101146.19;;;4.33;74.69
37610;BME280;23457;51.966;8.230;2023-03-16T07:23:25;101151.94;;;4.45;74.99
37610;BME280;23457;51.966;8.230;2023-03-16T07:25:58;101149.06;;;4.39;73.84
37610;BME280;23457;51.966;8.230;2023-03-16T07:28:25;101146.59;;;4.41;73.93
37610;BME280;23457;51.966;8.230;2023-03-16T07:30:53;101153.91;;;4.51;73.52
37610;BME280;23457;51.966;8.230;2023-03-16T07:33:35;101153.28;;;4.55;73.17
37610;BME280;23457;51.966;8.230;2023-03-16T07:36:04;101154.72;;;4.67;73.03
37610;BME280;23457;51.966;8.230;2023-03-16T07:38:37;101161.81;;;4.73;71.77
37610;BME280;23457;51.966;8.230;2023-03-16T07:41:04;101154.97;;;4.74;72.79
37610;BME280;23457;51.966;8.230;2023-03-16T07:43:32;101159.88;;;4.87;72.45
37610;BME280;23457;51.966;8.230;2023-03-16T07:46:00;101161.94;;;4.94;72.43
37610;BME280;23457;51.966;8.230;2023-03-16T07:48:28;101166.25;;;4.95;70.87
37610;BME280;23457;51.966;8.230;2023-03-16T07:50:59;101165.34;;;5.12;68.86
37610;BME280;23457;51.966;8.230;2023-03-16T07:53:27;101162.53;;;5.08;70.51
37610;BME280;23457;51.966;8.230;2023-03-16T07:56:10;101163.44;;;5.27;68.38
37610;BME280;23457;51.966;8.230;2023-03-16T07:58:40;101160.22;;;5.31;68.54
37610;BME280;23457;51.966;8.230;2023-03-16T08:01:07;101163.72;;;5.33;69.24
37610;BME280;23457;51.966;8.230;2023-03-16T08:03:36;101152.88;;;5.40;69.16
37610;BME280;23457;51.966;8.230;2023-03-16T08:06:05;101152.16;;;5.64;66.34
37610;BME280;23457;51.966;8.230;2023-03-16T08:08:31;101145.63;;;5.72;67.65
37610;BME280;23457;51.966;8.230;2023-03-16T08:10:58;101144.78;;;5.92;67.62
37610;BME280;23457;51.966;8.230;2023-03-16T08:13:36;101141.63;;;5.99;66.71
37610;BME280;23457;51.966;8.230;2023-03-16T08:16:03;101142.72;;;6.04;64.68
37610;BME280;23457;51.966;8.230;2023-03-16T08:18:36;101142.13;;;6.11;64.83
37610;BME280;23457;51.966;8.230;2023-03-16T08:21:04;101146.28;;;6.08;64.39
37610;BME280;23457;51.966;8.230;2023-03-16T08:23:31;101152.72;;;6.18;62.21
37610;BME280;23457;51.966;8.230;2023-03-16T08:25:59;101158.44;;;6.10;62.20
37610;BME280;23457;51.966;8.230;2023-03-16T08:28:26;101152.28;;;6.28;63.89
37610;BME280;23457;51.966;8.230;2023-03-16T08:30:55;101153.59;;;6.18;62.51
37610;BME280;23457;51.966;8.230;2023-03-16T08:33:41;101152.28;;;6.50;62.83
37610;BME280;23457;51.966;8.230;2023-03-16T08:36:11;101153.69;;;6.42;59.68
37610;BME280;23457;51.966;8.230;2023-03-16T08:38:41;101143.31;;;6.63;61.30
37610;BME280;23457;51.966;8.230;2023-03-16T08:41:14;101151.66;;;6.78;63.48
37610;BME280;23457;51.966;8.230;2023-03-16T08:43:45;101151.69;;;7.02;60.14
37610;BME280;23457;51.966;8.230;2023-03-16T08:46:12;101151.00;;;7.06;59.27
37610;BME280;23457;51.966;8.230;2023-03-16T08:48:46;101155.34;;;7.07;59.18
37610;BME280;23457;51.966;8.230;2023-03-16T08:51:14;101151.19;;;7.12;58.98
37610;BME280;23457;51.966;8.230;2023-03-16T08:53:41;101156.97;;;7.05;57.59
37610;BME280;23457;51.966;8.230;2023-03-16T08:56:10;101159.34;;;7.23;58.61
37610;BME280;23457;51.966;8.230;2023-03-16T08:58:38;101156.06;;;7.27;57.61
37610;BME280;23457;51.966;8.230;2023-03-16T09:01:05;101152.44;;;7.45;56.94
37610;BME280;23457;51.966;8.230;2023-03-16T09:03:32;101150.16;;;7.54;56.70
37610;BME280;23457;51.966;8.230;2023-03-16T09:06:01;101154.09;;;7.43;57.08
37610;BME280;23457;51.966;8.230;2023-03-16T09:08:28;101148.03;;;7.43;57.03
37610;BME280;23457;51.966;8.230;2023-03-16T09:11:02;101144.88;;;7.51;56.73
37610;BME280;23457;51.966;8.230;2023-03-16T09:13:31;101148.66;;;7.85;56.52
37610;BME280;23457;51.966;8.230;2023-03-16T09:15:58;101151.84;;;7.78;56.03
37610;BME280;23457;51.966;8.230;2023-03-16T09:18:26;101147.28;;;7.96;55.28
37610;BME280;23457;51.966;8.230;2023-03-16T09:20:57;101142.16;;;8.24;55.02
37610;BME280;23457;51.966;8.230;2023-03-16T09:23:26;101139.50;;;8.21;55.34
37610;BME280;23457;51.966;8.230;2023-03-16T09:25:58;101138.00;;;8.30;55.73
37610;BME280;23457;51.966;8.230;2023-03-16T09:28:26;101144.97;;;8.57;55.03
37610;BME280;23457;51.966;8.230;2023-03-16T09:30:54;101137.53;;;8.68;55.56
37610;BME280;23457;51.966;8.230;2023-03-16T09:33:22;101131.03;;;8.54;53.73
37610;BME280;23457;51.966;8.230;2023-03-16T09:35:50;101137.31;;;8.62;54.04
37610;BME280;23457;51.966;8.230;2023-03-16T09:38:18;101137.09;;;8.83;53.56
37610;BME280;23457;51.966;8.230;2023-03-16T09:40:47;101134.22;;;8.72;53.82
37610;BME280;23457;51.966;8.230;2023-03-16T09:48:14;101131.41;;;8.94;52.01
37610;BME280;23457;51.966;8.230;2023-03-16T09:50:42;101127.31;;;9.03;51.76
37610;BME280;23457;51.966;8.230;2023-03-16T09:55:45;101134.78;;;9.22;51.07
37610;BME280;23457;51.966;8.230;2023-03-16T09:58:20;101123.97;;;9.38;51.52
37610;BME280;23457;51.966;8.230;2023-03-16T10:03:33;101127.63;;;9.78;52.10
37610;BME280;23457;51.966;8.230;2023-03-16T10:06:09;101126.09;;;9.84;50.58
37610;BME280;23457;51.966;8.230;2023-03-16T10:11:37;101128.72;;;9.86;50.81
37610;BME280;23457;51.966;8.230;2023-03-16T10:14:27;101117.75;;;9.97;50.71
37610;BME280;23457;51.966;8.230;2023-03-16T10:17:22;101121.06;;;9.57;50.78
37610;BME280;23457;51.966;8.230;2023-03-16T10:19:53;101124.84;;;9.70;51.85
37610;BME280;23457;51.966;8.230;2023-03-16T10:22:32;101123.28;;;9.77;51.04
37610;BME280;23457;51.966;8.230;2023-03-16T10:25:22;101116.84;;;9.95;51.39
37610;BME280;23457;51.966;8.230;2023-03-16T10:27:51;101121.78;;;9.85;50.21
37610;BME280;23457;51.966;8.230;2023-03-16T10:32:45;101103.16;;;10.02;50.46
37610;BME280;23457;51.966;8.230;2023-03-16T10:38:08;101119.34;;;9.92;49.64
37610;BME280;23457;51.966;8.230;2023-03-16T10:40:36;101122.78;;;9.91;49.84
37610;BME280;23457;51.966;8.230;2023-03-16T10:43:06;101118.16;;;9.80;49.44
37610;BME280;23457;51.966;8.230;2023-03-16T10:45:34;101119.25;;;9.88;49.13
37610;BME280;23457;51.966;8.230;2023-03-16T10:50:42;101130.22;;;9.78;48.54
37610;BME280;23457;51.966;8.230;2023-03-16T10:53:25;101130.00;;;9.68;49.46
37610;BME280;23457;51.966;8.230;2023-03-16T10:56:08;101129.28;;;9.74;48.95
37610;BME280;23457;51.966;8.230;2023-03-16T10:58:41;101122.44;;;9.78;49.95
37610;BME280;23457;51.966;8.230;2023-03-16T11:01:25;101116.50;;;9.82;49.63
37610;BME280;23457;51.966;8.230;2023-03-16T11:03:56;101114.66;;;9.78;49.41
37610;BME280;23457;51.966;8.230;2023-03-16T11:06:25;101107.38;;;9.64;49.57
37610;BME280;23457;51.966;8.230;2023-03-16T11:09:20;101102.47;;;9.74;49.87
37610;BME280;23457;51.966;8.230;2023-03-16T11:11:49;101104.94;;;9.38;49.80
37610;BME280;23457;51.966;8.230;2023-03-16T11:14:20;101089.31;;;9.67;49.06
37610;BME280;23457;51.966;8.230;2023-03-16T11:19:25;101094.28;;;9.58;49.95
37610;BME280;23457;51.966;8.230;2023-03-16T11:21:57;101090.38;;;9.76;49.91
37610;BME280;23457;51.966;8.230;2023-03-16T11:24:42;101090.00;;;9.95;49.67
37610;BME280;23457;51.966;8.230;2023-03-16T11:30:32;101082.03;;;9.89;49.92
37610;BME280;23457;51.966;8.230;2023-03-16T11:33:01;101095.28;;;9.98;49.55
37610;BME280;23457;51.966;8.230;2023-03-16T11:41:03;101085.19;;;9.76;48.77
37610;BME280;23457;51.966;8.230;2023-03-16T11:46:48;101073.94;;;10.11;48.05
37610;BME280;23457;51.966;8.230;2023-03-16T11:49:39;101073.16;;;10.15;48.48
37610;BME280;23457;51.966;8.230;2023-03-16T11:55:21;101073.75;;;10.38;49.21
37610;BME280;23457;51.966;8.230;2023-03-16T12:01:19;101067.66;;;10.37;48.26
37610;BME280;23457;51.966;8.230;2023-03-16T12:06:57;101066.25;;;10.16;48.56
37610;BME280;23457;51.966;8.230;2023-03-16T12:15:34;101025.78;;;10.63;47.25
37610;BME280;23457;51.966;8.230;2023-03-16T12:18:09;101027.03;;;10.83;47.18
37610;BME280;23457;51.966;8.230;2023-03-16T12:20:58;101025.03;;;11.15;47.53
37610;BME280;23457;51.966;8.230;2023-03-16T12:26:01;101011.66;;;10.50;46.47
37610;BME280;23457;51.966;8.230;2023-03-16T12:28:30;101011.19;;;10.71;46.68
37610;BME280;23457;51.966;8.230;2023-03-16T12:36:37;101002.97;;;10.93;47.08
37610;BME280;23457;51.966;8.230;2023-03-16T12:50:05;100975.00;;;10.39;46.21
37610;BME280;23457;51.966;8.230;2023-03-16T12:52:44;100967.53;;;10.55;46.42
37610;BME280;23457;51.966;8.230;2023-03-16T12:55:15;100954.94;;;10.74;46.49
37610;BME280;23457;51.966;8.230;2023-03-16T12:57:43;100953.53;;;10.92;47.58
37610;BME280;23457;51.966;8.230;2023-03-16T13:00:12;100946.19;;;11.18;46.23
37610;BME280;23457;51.966;8.230;2023-03-16T13:02:54;100935.47;;;11.51;45.66
37610;BME280;23457;51.966;8.230;2023-03-16T13:05:29;100938.03;;;11.49;45.97
37610;BME280;23457;51.966;8.230;2023-03-16T13:08:09;100941.69;;;11.60;45.28
37610;BME280;23457;51.966;8.230;2023-03-16T13:10:37;100943.31;;;11.52;47.11
37610;BME280;23457;51.966;8.230;2023-03-16T13:13:13;100940.91;;;11.67;45.93
37610;BME280;23457;51.966;8.230;2023-03-16T13:15:41;100933.75;;;11.51;45.63
37610;BME280;23457;51.966;8.230;2023-03-16T13:23:27;100909.97;;;11.30;45.78
37610;BME280;23457;51.966;8.230;2023-03-16T13:26:57;100908.28;;;11.33;46.36
37610;BME280;23457;51.966;8.230;2023-03-16T13:31:46;100901.66;;;11.52;45.90
37610;BME280;23457;51.966;8.230;2023-03-16T13:34:21;100897.91;;;11.35;46.22
37610;BME280;23457;51.966;8.230;2023-03-16T13:36:53;100898.84;;;11.40;45.35
37610;BME280;23457;51.966;8.230;2023-03-16T13:39:22;100893.41;;;11.80;46.33
37610;BME280;23457;51.966;8.230;2023-03-16T13:42:29;100882.22;;;11.88;45.92
37610;BME280;23457;51.966;8.230;2023-03-16T13:44:54;100888.31;;;11.32;45.76
37610;BME280;23457;51.966;8.230;2023-03-16T13:47:24;100880.66;;;11.43;45.81
37610;BME280;23457;51.966;8.230;2023-03-16T13:49:57;100871.13;;;11.42;45.53
37610;BME280;23457;51.966;8.230;2023-03-16T13:52:31;100860.63;;;11.36;46.50
37610;BME280;23457;51.966;8.230;2023-03-16T13:55:01;100863.19;;;11.33;46.74
37610;BME280;23457;51.966;8.230;2023-03-16T13:57:34;100859.84;;;11.43;47.55
37610;BME280;23457;51.966;8.230;2023-03-16T14:00:11;100853.31;;;11.12;47.18
37610;BME280;23457;51.966;8.230;2023-03-16T14:02:45;100848.13;;;11.12;47.35
37610;BME280;23457;51.966;8.230;2023-03-16T14:07:49;100838.19;;;10.88;47.66
37610;BME280;23457;51.966;8.230;2023-03-16T14:10:17;100841.00;;;11.02;47.30
37610;BME280;23457;51.966;8.230;2023-03-16T14:12:57;100832.34;;;11.01;48.01
37610;BME280;23457;51.966;8.230;2023-03-16T14:15:31;100828.16;;;11.11;47.75
37610;BME280;23457;51.966;8.230;2023-03-16T14:18:18;100824.28;;;10.86;47.01
37610;BME280;23457;51.966;8.230;2023-03-16T14:20:52;100817.72;;;11.09;46.93
37610;BME280;23457;51.966;8.230;2023-03-16T14:23:25;100810.34;;;10.81;46.50
37610;BME280;23457;51.966;8.230;2023-03-16T14:25:54;100802.00;;;11.03;46.32
37610;BME280;23457;51.966;8.230;2023-03-16T14:28:27;100813.09;;;10.89;46.22
37610;BME280;23457;51.966;8.230;2023-03-16T14:31:11;100808.47;;;11.27;47.07
37610;BME280;23457;51.966;8.230;2023-03-16T14:33:41;100807.75;;;11.37;45.56
37610;BME280;23457;51.966;8.230;2023-03-16T14:36:15;100804.28;;;11.38;46.55
37610;BME280;23457;51.966;8.230;2023-03-16T14:38:44;100804.13;;;11.26;46.48
37610;BME280;23457;51.966;8.230;2023-03-16T14:41:21;100797.69;;;11.63;46.01
37610;BME280;23457;51.966;8.230;2023-03-16T14:44:00;100784.66;;;11.63;46.97
37610;BME280;23457;51.966;8.230;2023-03-16T14:46:29;100781.41;;;11.77;45.83
37610;BME280;23457;51.966;8.230;2023-03-16T14:51:35;100771.94;;;11.84;46.49
37610;BME280;23457;51.966;8.230;2023-03-16T14:54:11;100758.97;;;11.87;45.87